Time;durP1;ratioP1;P1;durP2;ratioP2;P2;SDS_P1;SDS_P2;PMS_P1;PMS_P2;Temp;Humidity;BMP_temperature;BMP_pressure;BME280_temperature;BME280_humidity;BME280_pressure;Samples;Min_cycle;Max_cycle;Signal;HPM_P1;HPM_P2
2024/04/17 00:01:18;;;;;;;5.03;1.70;;;15.20;70.30;;;;;;4493150;26;20642;-49
2024/04/17 00:04:01;;;;;;;5.40;1.33;;;15.20;70.40;;;;;;4499863;26;20787;-49
2024/04/17 00:06:41;;;;;;;5.32;1.33;;;15.20;70.30;;;;;;4499992;26;20076;-52
2024/04/17 00:09:27;;;;;;;5.32;1.35;;;15.10;70.20;;;;;;4500187;26;20079;-53
2024/04/17 00:12:07;;;;;;;3.30;1.15;;;15.20;70.20;;;;;;4499956;26;20559;-51
2024/04/17 00:14:49;;;;;;;3.17;1.10;;;15.10;70.30;;;;;;4500184;26;20021;-52
2024/04/17 00:17:30;;;;;;;8.07;1.55;;;15.10;70.30;;;;;;4498014;26;20010;-51
2024/04/17 00:20:13;;;;;;;5.13;1.20;;;15.10;70.30;;;;;;4468755;26;20080;-47
2024/04/17 00:22:53;;;;;;;5.70;1.35;;;15.10;70.40;;;;;;4470335;26;20080;-49
2024/04/17 00:25:39;;;;;;;4.75;1.40;;;15.10;70.50;;;;;;4469517;26;20014;-49
2024/04/17 00:28:19;;;;;;;4.47;1.40;;;15.10;70.50;;;;;;4468586;26;20006;-51
2024/04/17 00:31:02;;;;;;;2.70;1.53;;;15.10;70.60;;;;;;4470303;26;20015;-49
2024/04/17 00:33:45;;;;;;;4.63;1.60;;;15.10;70.70;;;;;;4469792;26;20339;-49
2024/04/17 00:36:25;;;;;;;5.38;1.42;;;15.10;70.80;;;;;;4470815;26;20026;-49
2024/04/17 00:39:08;;;;;;;6.67;1.53;;;15.00;70.70;;;;;;4469542;26;20069;-50
2024/04/17 00:41:51;;;;;;;4.13;1.50;;;15.00;70.70;;;;;;4470523;26;20014;-45
2024/04/17 00:44:34;;;;;;;5.07;1.70;;;15.00;70.70;;;;;;4470774;26;20018;-48
2024/04/17 00:47:14;;;;;;;4.93;1.50;;;15.00;70.90;;;;;;4469492;26;20072;-50
2024/04/17 00:49:57;;;;;;;4.55;1.45;;;15.00;70.80;;;;;;4469673;26;20014;-50
2024/04/17 00:52:38;;;;;;;5.55;1.48;;;15.00;70.80;;;;;;4461797;26;20068;-51
2024/04/17 00:55:21;;;;;;;5.05;1.17;;;15.00;70.80;;;;;;4469388;26;20040;-50
2024/04/17 00:58:06;;;;;;;2.95;1.20;;;15.00;70.70;;;;;;4470618;26;20399;-51
2024/04/17 01:00:49;;;;;;;4.65;1.55;;;14.90;70.60;;;;;;4496756;26;20081;-45
2024/04/17 01:03:29;;;;;;;3.42;1.33;;;14.90;71.30;;;;;;4464490;26;20556;-47
2024/04/17 01:06:12;;;;;;;7.15;2.08;;;14.90;70.70;;;;;;4469915;26;20013;-46
2024/04/17 01:08:52;;;;;;;2.80;1.30;;;14.90;70.70;;;;;;4488970;26;20389;-50
2024/04/17 01:11:40;;;;;;;3.90;1.27;;;14.90;70.80;;;;;;4467178;26;20019;-50
2024/04/17 01:14:23;;;;;;;2.40;0.90;;;14.90;70.70;;;;;;4469172;26;20457;-50
2024/04/17 01:17:06;;;;;;;3.33;1.20;;;14.90;70.80;;;;;;4471555;26;20076;-49
2024/04/17 01:19:47;;;;;;;2.90;1.20;;;14.90;70.90;;;;;;4499117;26;20096;-51
2024/04/17 01:22:30;;;;;;;4.03;1.23;;;14.90;70.90;;;;;;4501646;26;20017;-48
2024/04/17 01:25:13;;;;;;;6.25;1.15;;;14.90;71.00;;;;;;4501962;26;20140;-47
2024/04/17 01:27:56;;;;;;;3.80;1.20;;;14.90;70.90;;;;;;4501614;26;20013;-47
2024/04/17 01:30:36;;;;;;;2.88;1.23;;;14.90;71.20;;;;;;4472889;26;20018;-46
2024/04/17 01:33:19;;;;;;;1.88;1.20;;;14.90;71.30;;;;;;4472235;26;20891;-48
2024/04/17 01:36:00;;;;;;;4.88;1.10;;;14.80;71.30;;;;;;4478063;26;20352;-50
2024/04/17 01:38:44;;;;;;;3.63;1.13;;;14.80;71.50;;;;;;4489942;26;20079;-48
2024/04/17 01:41:28;;;;;;;4.43;1.60;;;14.80;71.60;;;;;;4462469;26;20072;-49
2024/04/17 01:44:11;;;;;;;4.72;1.45;;;14.80;71.60;;;;;;4472420;26;20015;-50
2024/04/17 01:46:51;;;;;;;2.28;0.88;;;14.80;71.80;;;;;;4472301;26;20358;-50
2024/04/17 01:49:34;;;;;;;3.53;1.17;;;14.80;71.80;;;;;;4482042;26;20087;-46
2024/04/17 01:52:14;;;;;;;1.70;0.70;;;14.80;71.90;;;;;;4502096;26;20014;-51
2024/04/17 01:54:58;;;;;;;3.15;1.10;;;14.80;72.00;;;;;;4502177;26;20518;-47
2024/04/17 01:57:41;;;;;;;5.00;0.80;;;14.70;72.00;;;;;;4472448;26;20018;-46
2024/04/17 02:00:24;;;;;;;2.13;0.80;;;14.70;72.00;;;;;;4471826;26;20397;-50
2024/04/17 02:03:09;;;;;;;1.83;0.82;;;14.70;71.90;;;;;;4471508;26;20054;-51
2024/04/17 02:05:49;;;;;;;1.50;0.60;;;14.70;71.90;;;;;;4470855;26;20014;-50
2024/04/17 02:08:32;;;;;;;4.85;0.80;;;14.70;72.20;;;;;;4472587;26;20014;-51
2024/04/17 02:11:13;;;;;;;1.63;0.77;;;14.70;72.20;;;;;;4472239;26;20076;-49
2024/04/17 02:13:58;;;;;;;1.98;0.63;;;14.70;72.20;;;;;;4471951;26;20080;-49
2024/04/17 02:16:38;;;;;;;1.35;0.68;;;14.70;72.10;;;;;;4471902;26;20454;-47
2024/04/17 02:19:21;;;;;;;0.88;0.88;;;14.70;72.20;;;;;;4472083;26;20072;-51
2024/04/17 02:22:02;;;;;;;2.53;0.70;;;14.70;72.20;;;;;;4480963;26;20014;-52
2024/04/17 02:24:45;;;;;;;1.08;0.55;;;14.70;72.30;;;;;;4501693;26;20458;-49
2024/04/17 02:27:25;;;;;;;1.02;0.68;;;14.70;72.40;;;;;;4499500;26;20076;-50
2024/04/17 02:30:12;;;;;;;1.45;1.35;;;14.60;72.30;;;;;;4499081;26;20047;-49
2024/04/17 02:32:52;;;;;;;2.80;0.70;;;14.60;72.20;;;;;;4500734;26;20338;-51
2024/04/17 02:35:36;;;;;;;2.20;0.60;;;14.60;72.40;;;;;;4491371;26;20054;-46
2024/04/17 02:38:16;;;;;;;1.20;0.50;;;14.60;72.50;;;;;;4498027;26;20013;-51
2024/04/17 02:41:00;;;;;;;1.20;0.45;;;14.60;72.60;;;;;;4480169;26;20019;-49
2024/04/17 02:43:40;;;;;;;0.88;0.52;;;14.60;72.60;;;;;;4470756;26;20022;-52
2024/04/17 02:46:25;;;;;;;2.78;0.65;;;14.60;72.60;;;;;;4470482;26;20018;-49
2024/04/17 02:49:06;;;;;;;2.95;0.77;;;14.60;72.30;;;;;;4470940;26;20480;-47
2024/04/17 02:51:49;;;;;;;1.23;0.60;;;14.60;72.40;;;;;;4469289;26;20048;-49
2024/04/17 02:54:29;;;;;;;0.80;0.70;;;14.60;72.50;;;;;;4480480;26;20522;-48
2024/04/17 02:57:13;;;;;;;0.88;0.60;;;14.60;72.40;;;;;;4469094;26;20022;-50
2024/04/17 02:59:53;;;;;;;3.17;0.82;;;14.60;72.50;;;;;;4471523;26;20080;-47
2024/04/17 03:02:38;;;;;;;3.25;0.70;;;14.60;72.70;;;;;;4471297;26;20019;-52
2024/04/17 03:05:18;;;;;;;0.95;0.40;;;14.60;72.60;;;;;;4470428;26;20063;-49
2024/04/17 03:08:02;;;;;;;3.97;0.50;;;14.60;72.80;;;;;;4469911;26;20014;-50
2024/04/17 03:10:42;;;;;;;1.65;0.40;;;14.60;72.80;;;;;;4482827;26;20068;-52
2024/04/17 03:13:25;;;;;;;0.40;0.40;;;14.60;74.00;;;;;;4471476;26;20363;-48
2024/04/17 03:16:06;;;;;;;2.38;0.70;;;14.70;73.80;;;;;;4471096;26;20018;-47
2024/04/17 03:18:51;;;;;;;2.35;0.70;;;14.70;74.00;;;;;;4471589;26;20319;-48
2024/04/17 03:21:31;;;;;;;4.07;1.63;;;14.90;73.80;;;;;;4471568;26;20018;-47
2024/04/17 03:24:14;;;;;;;1.90;0.57;;;15.00;73.70;;;;;;4471048;26;20018;-49
2024/04/17 03:26:55;;;;;;;3.08;0.52;;;15.00;73.50;;;;;;4491125;26;20009;-46
2024/04/17 03:29:38;;;;;;;1.75;0.52;;;15.10;73.10;;;;;;4500218;26;20456;-50
2024/04/17 03:32:18;;;;;;;0.82;0.77;;;15.10;72.80;;;;;;4499122;26;20618;-47
2024/04/17 03:35:03;;;;;;;1.65;0.60;;;15.10;72.80;;;;;;4487227;26;20330;-47
2024/04/17 03:37:46;;;;;;;1.02;0.73;;;15.10;72.80;;;;;;4496039;26;20017;-50
2024/04/17 03:40:29;;;;;;;1.73;0.60;;;15.10;73.00;;;;;;4470949;26;20338;-51
2024/04/17 03:43:12;;;;;;;1.25;0.70;;;15.20;72.80;;;;;;4468094;26;20384;-50
2024/04/17 03:45:55;;;;;;;0.95;0.60;;;15.20;72.70;;;;;;4484495;26;20014;-49
2024/04/17 03:48:38;;;;;;;2.92;0.75;;;15.30;72.70;;;;;;4497035;26;20018;-49
2024/04/17 03:51:23;;;;;;;2.35;0.80;;;15.30;72.60;;;;;;4470180;26;20077;-49
2024/04/17 03:54:03;;;;;;;0.90;0.65;;;15.30;72.50;;;;;;4475678;26;20039;-48
2024/04/17 03:56:46;;;;;;;0.95;0.50;;;15.30;72.50;;;;;;4500405;26;20049;-48
2024/04/17 03:59:27;;;;;;;0.88;0.50;;;15.30;72.50;;;;;;4495480;26;20068;-49
2024/04/17 04:02:09;;;;;;;0.80;0.43;;;15.30;72.50;;;;;;4500558;26;20075;-50
2024/04/17 04:04:51;;;;;;;1.15;0.45;;;15.40;72.40;;;;;;4499857;26;20082;-50
2024/04/17 04:07:38;;;;;;;0.52;0.50;;;15.40;72.50;;;;;;4500047;26;20043;-50
2024/04/17 04:10:18;;;;;;;1.08;0.45;;;15.40;72.50;;;;;;4472493;26;20093;-49
2024/04/17 04:13:01;;;;;;;0.50;0.50;;;15.40;72.50;;;;;;4470187;26;20051;-54
2024/04/17 04:15:41;;;;;;;0.45;0.43;;;15.40;72.30;;;;;;4470206;26;20014;-52
2024/04/17 04:18:23;;;;;;;1.05;0.30;;;15.50;72.20;;;;;;4470578;26;20072;-52
2024/04/17 04:21:06;;;;;;;5.00;0.50;;;15.50;72.20;;;;;;4469768;26;20019;-51
2024/04/17 04:23:50;;;;;;;1.10;0.90;;;15.50;72.40;;;;;;4470349;26;20050;-50
2024/04/17 04:26:32;;;;;;;1.98;0.63;;;15.50;72.30;;;;;;4470554;26;20040;-51
2024/04/17 04:29:12;;;;;;;0.47;0.47;;;15.50;72.20;;;;;;4480228;26;20014;-52
2024/04/17 04:31:55;;;;;;;1.08;0.43;;;15.50;72.20;;;;;;4471002;26;20073;-50
2024/04/17 04:34:36;;;;;;;2.75;1.42;;;15.50;72.00;;;;;;4469896;26;20014;-49
2024/04/17 04:37:19;;;;;;;1.17;0.80;;;15.50;72.00;;;;;;4469795;26;20081;-48
2024/04/17 04:40:02;;;;;;;1.42;0.40;;;15.60;72.10;;;;;;4491433;26;20013;-50
2024/04/17 04:42:45;;;;;;;1.23;0.55;;;15.50;72.00;;;;;;4497237;26;20342;-50
2024/04/17 04:45:25;;;;;;;2.40;0.50;;;15.50;72.10;;;;;;4499879;26;20046;-49
2024/04/17 04:48:09;;;;;;;1.45;0.45;;;15.50;72.00;;;;;;4470044;26;20014;-51
2024/04/17 04:50:52;;;;;;;1.92;0.70;;;15.50;72.20;;;;;;4469999;26;20049;-52
2024/04/17 04:53:35;;;;;;;0.77;0.40;;;15.50;72.40;;;;;;4469870;26;20076;-51
2024/04/17 04:56:18;;;;;;;0.43;0.30;;;15.50;72.50;;;;;;4469949;26;20102;-47
2024/04/17 04:59:01;;;;;;;1.38;0.55;;;15.50;72.50;;;;;;4477869;26;20013;-50
2024/04/17 05:01:41;;;;;;;0.45;0.40;;;15.50;72.40;;;;;;4502300;26;20017;-49
2024/04/17 05:04:24;;;;;;;1.02;0.50;;;15.60;72.20;;;;;;4472756;26;20018;-47
2024/04/17 05:07:05;;;;;;;0.45;0.38;;;15.60;72.20;;;;;;4472556;26;20018;-50
2024/04/17 05:09:48;;;;;;;1.60;0.52;;;15.60;72.10;;;;;;4488549;26;20326;-48
2024/04/17 05:12:30;;;;;;;0.30;0.30;;;15.50;72.20;;;;;;4502522;26;20044;-53
2024/04/17 05:15:13;;;;;;;0.47;0.40;;;15.60;72.40;;;;;;4502255;26;20083;-52
2024/04/17 05:17:53;;;;;;;1.30;0.30;;;15.60;72.30;;;;;;4501647;26;20070;-47
2024/04/17 05:20:36;;;;;;;0.70;0.70;;;15.70;72.30;;;;;;4498116;26;20076;-51
2024/04/17 05:23:16;;;;;;;0.85;0.40;;;15.70;72.10;;;;;;4502213;26;20020;-51
2024/04/17 05:25:59;;;;;;;1.13;0.30;;;15.70;72.20;;;;;;4501866;26;20017;-53
2024/04/17 05:28:45;;;;;;;1.77;0.43;;;15.70;71.90;;;;;;4481886;26;20041;-47
2024/04/17 05:31:26;;;;;;;0.52;0.35;;;15.70;72.00;;;;;;4471786;26;20081;-52
2024/04/17 05:34:09;;;;;;;2.97;0.30;;;15.70;72.30;;;;;;4470601;26;20018;-50
2024/04/17 05:36:49;;;;;;;2.67;0.50;;;15.70;72.40;;;;;;4500063;26;20021;-48
2024/04/17 05:39:32;;;;;;;1.95;0.50;;;15.70;72.30;;;;;;4501552;26;20364;-48
2024/04/17 05:42:12;;;;;;;0.65;0.30;;;15.70;72.20;;;;;;4490935;26;20045;-53
2024/04/17 05:44:58;;;;;;;2.33;0.50;;;15.70;72.10;;;;;;4471347;26;20021;-53
2024/04/17 05:47:38;;;;;;;1.55;0.43;;;15.60;71.80;;;;;;4459630;26;20008;-53
2024/04/17 05:50:21;;;;;;;2.13;0.40;;;15.60;72.00;;;;;;4464764;26;20696;-54
2024/04/17 05:53:01;;;;;;;2.53;0.60;;;15.60;72.20;;;;;;4438786;26;20014;-52
2024/04/17 05:55:44;;;;;;;3.38;0.47;;;15.60;71.60;;;;;;4454890;26;20351;-52
2024/04/17 05:58:25;;;;;;;1.50;0.40;;;15.70;71.40;;;;;;4470338;26;20413;-52
2024/04/17 06:01:10;;;;;;;1.25;0.40;;;15.70;71.30;;;;;;4467359;26;20404;-51
2024/04/17 06:03:51;;;;;;;1.60;0.40;;;15.70;71.70;;;;;;4468579;26;20073;-51
2024/04/17 06:06:33;;;;;;;0.73;0.50;;;15.60;71.80;;;;;;4462625;26;20453;-54
2024/04/17 06:09:14;;;;;;;2.50;0.60;;;15.60;72.10;;;;;;4456342;26;20011;-53
2024/04/17 06:11:57;;;;;;;0.45;0.40;;;15.60;73.90;;;;;;4471706;26;20015;-52
2024/04/17 06:14:37;;;;;;;0.93;0.52;;;15.60;73.80;;;;;;4472123;26;20088;-53
2024/04/17 06:17:22;;;;;;;3.33;0.90;;;15.50;72.90;;;;;;4471244;26;20014;-55
2024/04/17 06:20:04;;;;;;;4.55;0.60;;;15.50;72.80;;;;;;4471650;26;20343;-54
2024/04/17 06:22:47;;;;;;;5.95;1.92;;;15.50;72.80;;;;;;4471744;26;20013;-50
2024/04/17 06:25:27;;;;;;;1.70;0.47;;;15.60;72.80;;;;;;4474086;26;20015;-55
2024/04/17 06:28:10;;;;;;;1.20;0.70;;;15.60;72.80;;;;;;4490359;26;20437;-53
2024/04/17 06:30:51;;;;;;;1.55;0.63;;;15.60;72.80;;;;;;4501080;26;20037;-49
2024/04/17 06:33:36;;;;;;;1.42;0.50;;;15.60;72.50;;;;;;4484439;26;20040;-51
2024/04/17 06:36:19;;;;;;;1.92;0.40;;;15.70;72.40;;;;;;4500914;26;20461;-49
2024/04/17 06:39:00;;;;;;;1.30;0.30;;;15.70;73.20;;;;;;4501218;26;20075;-53
2024/04/17 06:41:43;;;;;;;1.90;0.95;;;15.70;72.40;;;;;;4501451;26;20014;-50
2024/04/17 06:44:33;;;;;;;1.67;0.75;;;15.70;72.30;;;;;;4498636;26;20017;-53
2024/04/17 06:47:14;;;;;;;3.15;1.23;;;15.70;72.30;;;;;;4471351;26;20047;-52
2024/04/17 06:50:00;;;;;;;2.83;0.98;;;15.70;72.30;;;;;;4481855;26;20466;-51
2024/04/17 06:52:40;;;;;;;1.23;0.47;;;15.70;73.20;;;;;;4491141;26;20009;-51
2024/04/17 06:55:23;;;;;;;0.40;0.40;;;15.70;72.80;;;;;;4498891;26;20079;-50
2024/04/17 06:58:04;;;;;;;9.38;4.55;;;15.70;72.00;;;;;;4490066;26;20013;-53
2024/04/17 07:00:47;;;;;;;2.92;1.48;;;15.70;72.00;;;;;;4484737;26;20452;-51
2024/04/17 07:03:28;;;;;;;0.55;0.43;;;15.70;72.10;;;;;;4499609;26;20095;-54
2024/04/17 07:06:13;;;;;;;1.00;0.30;;;15.70;72.20;;;;;;4492277;26;20010;-54
2024/04/17 07:08:53;;;;;;;2.95;0.60;;;15.70;72.30;;;;;;4479924;26;20014;-51
2024/04/17 07:11:36;;;;;;;3.33;0.60;;;15.60;72.30;;;;;;4501278;26;20021;-52
2024/04/17 07:14:16;;;;;;;2.28;1.05;;;15.60;72.40;;;;;;4499203;26;20024;-51
2024/04/17 07:16:59;;;;;;;3.42;0.70;;;15.60;72.80;;;;;;4482650;26;20014;-52
2024/04/17 07:19:42;;;;;;;2.97;0.98;;;15.60;72.40;;;;;;4500877;26;20013;-52
2024/04/17 07:22:25;;;;;;;2.55;0.75;;;15.60;72.70;;;;;;4500331;26;20018;-46
2024/04/17 07:25:10;;;;;;;3.03;0.85;;;15.60;72.80;;;;;;4496933;26;20363;-48
2024/04/17 07:27:52;;;;;;;4.85;0.80;;;15.60;73.30;;;;;;4488340;26;20075;-49
2024/04/17 07:30:40;;;;;;;2.50;0.70;;;15.70;73.60;;;;;;4498566;26;20052;-51
2024/04/17 07:33:20;;;;;;;3.33;0.80;;;15.80;73.90;;;;;;4485426;26;20017;-50
2024/04/17 07:36:04;;;;;;;2.67;0.65;;;15.80;73.60;;;;;;4478976;26;20013;-49
2024/04/17 07:38:47;;;;;;;4.70;0.98;;;15.80;72.60;;;;;;4488078;26;20026;-43
2024/04/17 07:41:30;;;;;;;1.20;0.52;;;15.90;72.80;;;;;;4492373;26;20406;-49
2024/04/17 07:44:13;;;;;;;3.03;0.77;;;16.00;73.50;;;;;;4493972;26;20327;-49
2024/04/17 07:46:53;;;;;;;2.47;1.40;;;16.00;72.70;;;;;;4496769;26;20006;-48
2024/04/17 07:49:36;;;;;;;2.40;0.88;;;16.20;72.30;;;;;;4495117;26;20015;-41
2024/04/17 07:52:16;;;;;;;1.25;0.80;;;16.20;71.80;;;;;;4493887;26;20079;-41
2024/04/17 07:55:01;;;;;;;2.55;0.95;;;16.20;71.60;;;;;;4474561;26;20080;-47
2024/04/17 07:57:42;;;;;;;2.97;0.80;;;16.20;72.10;;;;;;4494217;26;20067;-47
2024/04/17 08:00:24;;;;;;;3.05;0.60;;;16.10;72.40;;;;;;4492570;26;20033;-47
2024/04/17 08:03:05;;;;;;;6.40;1.02;;;16.10;72.40;;;;;;4495429;26;20039;-40
2024/04/17 08:05:48;;;;;;;2.70;1.08;;;16.10;72.60;;;;;;4494593;26;20067;-40
2024/04/17 08:08:28;;;;;;;1.83;0.80;;;16.00;72.90;;;;;;4487997;26;20014;-40
2024/04/17 08:11:14;;;;;;;5.13;1.02;;;15.90;72.80;;;;;;4496369;26;20013;-40
2024/04/17 08:13:54;;;;;;;2.45;0.60;;;16.00;73.00;;;;;;4496148;26;20442;-40
2024/04/17 08:16:37;;;;;;;4.18;1.05;;;15.90;73.10;;;;;;4494723;26;20013;-40
2024/04/17 08:19:17;;;;;;;1.45;0.75;;;15.80;73.00;;;;;;4480745;26;20108;-40
2024/04/17 08:22:00;;;;;;;4.55;0.65;;;15.90;73.30;;;;;;4466577;26;20062;-40
2024/04/17 08:24:40;;;;;;;2.67;1.05;;;15.80;73.50;;;;;;4494196;26;20515;-40
2024/04/17 08:27:25;;;;;;;3.67;1.10;;;15.90;73.50;;;;;;4496261;26;20010;-47
2024/04/17 08:30:07;;;;;;;3.42;0.75;;;15.90;73.40;;;;;;4497341;26;20017;-48
2024/04/17 08:32:52;;;;;;;4.72;1.08;;;15.90;73.30;;;;;;4491044;26;20080;-48
2024/04/17 08:35:36;;;;;;;2.58;1.05;;;15.90;73.40;;;;;;4499553;26;20914;-39
2024/04/17 08:38:19;;;;;;;5.35;1.02;;;15.90;72.90;;;;;;4499064;26;20097;-40
2024/04/17 08:40:59;;;;;;;5.50;0.90;;;15.90;73.30;;;;;;4499890;26;20064;-40
2024/04/17 08:43:48;;;;;;;3.47;1.10;;;15.90;73.20;;;;;;4498250;26;20341;-39
2024/04/17 08:46:29;;;;;;;2.30;0.85;;;15.80;73.10;;;;;;4497592;26;20015;-40
2024/04/17 08:49:13;;;;;;;5.00;1.55;;;15.80;73.20;;;;;;4497018;26;20079;-40
2024/04/17 08:51:54;;;;;;;1.17;0.65;;;15.80;73.30;;;;;;4495251;26;20014;-47
2024/04/17 08:54:40;;;;;;;3.25;1.05;;;15.70;73.40;;;;;;4498927;26;20014;-47
2024/04/17 08:57:21;;;;;;;4.47;0.80;;;15.70;73.50;;;;;;4488957;26;20014;-49
2024/04/17 09:00:08;;;;;;;1.57;1.00;;;15.70;73.60;;;;;;4498028;26;20018;-47
2024/04/17 09:02:51;;;;;;;2.60;0.85;;;15.70;72.80;;;;;;4494247;26;20049;-49
2024/04/17 09:05:35;;;;;;;5.18;1.02;;;15.60;73.30;;;;;;4495771;26;20014;-50
2024/04/17 09:08:17;;;;;;;3.13;1.00;;;15.60;73.40;;;;;;4497296;26;20171;-47
2024/04/17 09:11:00;;;;;;;2.97;1.00;;;15.60;74.00;;;;;;4498169;26;20027;-50
2024/04/17 09:13:41;;;;;;;4.38;1.55;;;15.60;74.10;;;;;;4496607;26;20013;-53
2024/04/17 09:16:26;;;;;;;4.28;1.30;;;15.60;74.10;;;;;;4498813;26;20013;-51
2024/04/17 09:19:07;;;;;;;6.13;1.10;;;15.60;73.30;;;;;;4496095;26;20022;-49
2024/04/17 09:21:50;;;;;;;4.40;1.08;;;15.50;74.00;;;;;;4500559;26;20076;-50
2024/04/17 09:24:38;;;;;;;3.05;0.95;;;15.60;74.40;;;;;;4498310;26;20014;-40
2024/04/17 09:27:21;;;;;;;3.20;1.08;;;15.60;73.90;;;;;;4475334;26;20018;-40
2024/04/17 09:30:02;;;;;;;5.22;1.15;;;15.60;74.00;;;;;;4472623;26;20014;-40
2024/04/17 09:32:49;;;;;;;2.87;0.83;;;15.60;73.90;;;;;;4473375;26;20019;-39
2024/04/17 09:35:29;;;;;;;2.78;0.90;;;15.60;73.80;;;;;;4471083;26;20093;-40
2024/04/17 09:38:16;;;;;;;4.13;1.58;;;15.60;73.70;;;;;;4471969;26;20065;-49
2024/04/17 09:40:56;;;;;;;4.38;1.05;;;15.60;73.80;;;;;;4469806;26;20034;-47
2024/04/17 09:43:44;;;;;;;4.30;0.73;;;15.60;73.30;;;;;;4472494;26;20076;-49
2024/04/17 09:46:30;;;;;;;1.90;0.75;;;15.50;73.10;;;;;;4472097;26;20019;-51
2024/04/17 09:49:22;;;;;;;3.83;0.80;;;15.50;70.80;;;;;;4472451;26;20061;-53
2024/04/17 09:52:04;;;;;;;4.03;1.10;;;15.50;71.90;;;;;;4472545;26;20009;-48
2024/04/17 09:54:47;;;;;;;6.32;1.30;;;15.50;69.80;;;;;;4472107;26;20018;-40
2024/04/17 09:57:29;;;;;;;6.53;1.83;;;15.40;68.20;;;;;;4472334;26;20019;-40
2024/04/17 10:00:12;;;;;;;;;;;15.40;69.70;;;;;;4488200;26;20013;-47
2024/04/17 10:02:57;;;;;;;4.63;0.95;;;15.40;70.50;;;;;;4502226;26;19993;-47
2024/04/17 10:05:43;;;;;;;2.67;1.05;;;15.40;72.30;;;;;;4501144;26;20800;-47
2024/04/17 10:08:26;;;;;;;1.35;0.75;;;15.40;69.60;;;;;;4502232;26;20083;-50
2024/04/17 10:11:10;;;;;;;8.20;0.98;;;15.40;67.40;;;;;;4501550;26;20083;-39
2024/04/17 10:13:53;;;;;;;3.97;1.10;;;15.40;68.40;;;;;;4470460;26;20446;-40
2024/04/17 10:16:36;;;;;;;7.45;1.10;;;15.40;69.40;;;;;;4469958;26;20716;-40
2024/04/17 10:19:17;;;;;;;4.68;1.10;;;15.40;69.10;;;;;;4471956;26;20477;-40
2024/04/17 10:22:07;;;;;;;6.68;0.98;;;15.40;66.50;;;;;;4469693;26;20450;-40
2024/04/17 10:24:48;;;;;;;2.53;1.00;;;15.40;64.30;;;;;;4471856;26;20018;-40
2024/04/17 10:27:31;;;;;;;5.55;1.20;;;15.40;65.80;;;;;;4472106;26;20052;-39
2024/04/17 10:30:16;;;;;;;2.10;0.80;;;15.40;64.50;;;;;;4468843;26;20018;-40
2024/04/17 10:32:56;;;;;;;2.22;0.93;;;15.40;62.10;;;;;;4472391;26;20017;-50
2024/04/17 10:35:44;;;;;;;2.90;0.90;;;15.40;63.20;;;;;;4471933;26;20022;-47
2024/04/17 10:38:29;;;;;;;4.78;0.98;;;15.40;62.20;;;;;;4472047;26;20017;-47
2024/04/17 10:41:15;;;;;;;2.30;1.08;;;15.30;63.60;;;;;;4465525;26;20018;-51
2024/04/17 10:43:56;;;;;;;3.75;0.70;;;15.30;63.60;;;;;;4469178;26;20039;-40
2024/04/17 10:46:39;;;;;;;1.30;0.60;;;15.30;62.40;;;;;;4466647;26;20014;-41
2024/04/17 10:49:24;;;;;;;3.80;0.90;;;15.30;63.20;;;;;;4461569;26;20018;-40
2024/04/17 10:52:04;;;;;;;2.42;0.95;;;15.40;61.80;;;;;;4465981;26;20015;-40
2024/04/17 10:54:50;;;;;;;3.22;0.93;;;15.40;60.30;;;;;;4471346;26;20360;-40
2024/04/17 10:57:31;;;;;;;1.35;0.70;;;15.40;59.00;;;;;;4471755;26;20014;-40
2024/04/17 11:00:15;;;;;;;1.95;0.60;;;15.40;60.80;;;;;;4471620;26;20445;-40
2024/04/17 11:02:55;;;;;;;2.95;0.93;;;15.40;63.00;;;;;;4471743;26;20018;-40
2024/04/17 11:05:38;;;;;;;3.17;0.90;;;15.40;61.40;;;;;;4464819;26;20362;-40
2024/04/17 11:08:19;;;;;;;3.40;0.80;;;15.50;60.70;;;;;;4467875;26;20017;-40
2024/04/17 11:11:04;;;;;;;2.25;0.70;;;15.50;61.00;;;;;;4476893;26;20009;-40
2024/04/17 11:13:45;;;;;;;5.07;1.40;;;15.50;62.60;;;;;;4500778;26;20022;-40
2024/04/17 11:16:29;;;;;;;3.17;1.00;;;15.50;59.80;;;;;;4501236;26;20079;-47
2024/04/17 11:19:09;;;;;;;2.72;0.90;;;15.50;59.70;;;;;;4500374;26;20072;-40
2024/04/17 11:21:52;;;;;;;2.42;0.70;;;15.50;60.20;;;;;;4501134;26;20017;-42
2024/04/17 11:24:35;;;;;;;1.27;0.60;;;15.50;59.10;;;;;;4501286;26;20079;-41
2024/04/17 11:27:19;;;;;;;4.05;0.90;;;15.60;59.20;;;;;;4498908;26;20005;-40
2024/04/17 11:30:02;;;;;;;2.40;0.75;;;15.60;58.00;;;;;;4501084;26;20009;-41
2024/04/17 11:32:44;;;;;;;3.38;1.05;;;15.60;56.60;;;;;;4471227;26;20019;-41
2024/04/17 11:35:27;;;;;;;1.38;0.60;;;15.60;57.10;;;;;;4471196;26;20097;-41
2024/04/17 11:38:08;;;;;;;3.47;0.90;;;15.60;58.90;;;;;;4470592;26;20057;-40
2024/04/17 11:40:51;;;;;;;3.55;0.90;;;15.70;57.40;;;;;;4465199;26;20013;-40
2024/04/17 11:43:34;;;;;;;2.35;0.85;;;15.70;57.40;;;;;;4468111;26;20026;-40
2024/04/17 11:46:17;;;;;;;2.33;0.90;;;15.70;56.70;;;;;;4469478;26;20036;-47
2024/04/17 11:48:58;;;;;;;7.70;2.38;;;15.70;56.40;;;;;;4468890;26;20014;-48
2024/04/17 11:51:41;;;;;;;2.92;1.15;;;15.70;57.70;;;;;;4490040;26;20013;-48
2024/04/17 11:54:21;;;;;;;4.20;0.60;;;15.70;58.30;;;;;;4500688;26;20071;-50
2024/04/17 11:57:04;;;;;;;5.65;1.17;;;15.70;58.30;;;;;;4500530;26;20612;-48
2024/04/17 11:59:48;;;;;;;1.83;0.95;;;15.70;58.10;;;;;;4470994;26;20017;-39
2024/04/17 12:02:31;;;;;;;5.03;0.93;;;15.70;57.30;;;;;;4470911;26;20022;-47
2024/04/17 12:05:11;;;;;;;3.95;1.08;;;15.70;57.30;;;;;;4469985;26;20014;-49
2024/04/17 12:07:54;;;;;;;2.55;0.68;;;15.70;57.90;;;;;;4470046;26;20449;-48
2024/04/17 12:10:34;;;;;;;1.77;0.70;;;15.70;56.60;;;;;;4479149;26;20075;-48
2024/04/17 12:13:17;;;;;;;0.88;0.65;;;15.70;55.50;;;;;;4498418;26;20334;-51
2024/04/17 12:16:00;;;;;;;3.45;0.90;;;15.60;56.80;;;;;;4500106;26;20045;-50
2024/04/17 12:18:43;;;;;;;6.32;1.00;;;15.60;56.50;;;;;;4500373;26;20083;-41
2024/04/17 12:21:24;;;;;;;3.55;1.23;;;15.60;56.50;;;;;;4500176;26;20013;-40
2024/04/17 12:24:16;;;;;;;5.40;1.10;;;15.60;57.90;;;;;;4492204;26;20416;-39
2024/04/17 12:26:56;;;;;;;4.07;1.00;;;15.60;56.70;;;;;;4484454;26;20027;-50
2024/04/17 12:29:39;;;;;;;3.40;0.90;;;15.60;57.00;;;;;;4495248;26;20075;-47
2024/04/17 12:32:24;;;;;;;7.10;1.20;;;15.60;57.90;;;;;;4500396;26;20329;-42
2024/04/17 12:35:08;;;;;;;4.00;1.00;;;15.60;58.70;;;;;;4499959;26;20047;-40
2024/04/17 12:37:54;;;;;;;2.53;1.02;;;15.70;59.50;;;;;;4493345;26;20441;-40
2024/04/17 12:40:36;;;;;;;3.67;0.98;;;15.70;58.40;;;;;;4489442;26;20345;-40
2024/04/17 12:43:20;;;;;;;5.55;1.00;;;15.70;57.80;;;;;;4490098;26;20013;-40
2024/04/17 12:46:03;;;;;;;4.18;0.85;;;15.80;56.60;;;;;;4470100;26;20359;-40
2024/04/17 12:48:46;;;;;;;2.50;0.82;;;15.70;57.00;;;;;;4481579;26;20017;-48
2024/04/17 12:51:29;;;;;;;3.63;1.10;;;15.70;56.30;;;;;;4491350;26;20014;-49
2024/04/17 12:54:12;;;;;;;3.05;0.80;;;15.70;55.40;;;;;;4470011;26;20078;-48
2024/04/17 12:56:56;;;;;;;3.97;0.90;;;15.70;55.60;;;;;;4487195;26;20017;-39
2024/04/17 12:59:36;;;;;;;2.28;0.82;;;15.70;55.60;;;;;;4469498;26;20018;-40
2024/04/17 13:02:19;;;;;;;5.07;1.05;;;15.70;56.80;;;;;;4469433;26;20082;-40
2024/04/17 13:05:06;;;;;;;4.70;1.02;;;15.70;56.60;;;;;;4468629;26;20018;-40
2024/04/17 13:07:49;;;;;;;3.38;0.80;;;15.70;55.70;;;;;;4469621;26;20013;-40
2024/04/17 13:10:29;;;;;;;1.25;0.80;;;15.70;55.70;;;;;;4470469;26;20067;-40
2024/04/17 13:13:12;;;;;;;2.35;0.70;;;15.70;55.70;;;;;;4487417;26;20133;-40
2024/04/17 13:15:58;;;;;;;5.60;0.80;;;15.70;54.70;;;;;;4489694;26;20018;-47
2024/04/17 13:18:41;;;;;;;4.22;1.38;;;15.80;55.40;;;;;;4501481;26;20350;-48
2024/04/17 13:21:24;;;;;;;3.53;0.77;;;15.80;56.50;;;;;;4500738;26;20006;-47
2024/04/17 13:24:07;;;;;;;3.55;0.88;;;15.80;55.40;;;;;;4497532;26;20021;-41
2024/04/17 13:26:48;;;;;;;4.05;0.90;;;15.80;54.80;;;;;;4495541;26;20014;-41
2024/04/17 13:29:32;;;;;;;4.50;1.00;;;15.80;56.00;;;;;;4481194;26;20022;-47
2024/04/17 13:32:12;;;;;;;7.78;0.90;;;15.80;56.30;;;;;;4481069;26;20035;-46
2024/04/17 13:34:57;;;;;;;3.92;1.00;;;15.80;56.50;;;;;;4495696;26;20353;-50
2024/04/17 13:37:40;;;;;;;4.82;1.02;;;15.80;56.50;;;;;;4482616;26;20025;-48
2024/04/17 13:40:23;;;;;;;3.58;0.85;;;15.90;57.90;;;;;;4472043;26;20018;-40
2024/04/17 13:43:07;;;;;;;3.67;1.15;;;15.90;56.80;;;;;;4493062;26;20013;-40
2024/04/17 13:45:47;;;;;;;1.85;0.65;;;15.90;55.80;;;;;;4492209;26;20014;-40
2024/04/17 13:48:30;;;;;;;2.42;0.95;;;15.90;55.60;;;;;;4500666;26;20075;-50
2024/04/17 13:51:12;;;;;;;4.30;1.08;;;15.90;55.90;;;;;;4501944;26;20137;-48
2024/04/17 13:53:58;;;;;;;6.25;1.02;;;16.00;54.70;;;;;;4501414;26;20017;-46
2024/04/17 13:56:38;;;;;;;2.08;1.00;;;16.00;55.50;;;;;;4501101;26;20047;-46
2024/04/17 13:59:21;;;;;;;4.07;1.23;;;16.00;56.00;;;;;;4486039;26;20080;-47
2024/04/17 14:02:02;;;;;;;4.30;1.25;;;16.00;55.50;;;;;;4499108;26;20013;-46
2024/04/17 14:04:45;;;;;;;1.90;0.70;;;16.00;54.30;;;;;;4501764;26;20021;-48
2024/04/17 14:07:25;;;;;;;3.58;0.90;;;16.00;55.40;;;;;;4497158;26;20273;-48